Time;durP1;ratioP1;P1;durP2;ratioP2;P2;SDS_P1;SDS_P2;PMS_P1;PMS_P2;Temp;Humidity;BMP_temperature;BMP_pressure;BME280_temperature;BME280_humidity;BME280_pressure;Samples;Min_cycle;Max_cycle;Signal;HPM_P1;HPM_P2
2023/05/08 00:01:29;;;;;;;6.00;2.30;;;;;;;8.89;44.84;101384.42;105844;1253;62826;-49
2023/05/08 00:03:57;;;;;;;11.20;2.20;;;;;;;8.85;45.25;101394.73;105898;1256;60946;-50
2023/05/08 00:06:26;;;;;;;5.40;2.30;;;;;;;8.82;45.09;101401.26;105935;1252;75197;-50
2023/05/08 00:08:56;;;;;;;8.20;2.10;;;;;;;8.77;45.55;101415.20;105919;1257;67507;-50
2023/05/08 00:11:23;;;;;;;3.00;1.90;;;;;;;8.73;45.64;101426.52;105833;1254;74628;-50
2023/05/08 00:13:50;;;;;;;7.50;2.00;;;;;;;8.69;45.72;101434.08;105827;1253;62569;-47
2023/05/08 00:16:17;;;;;;;2.80;2.00;;;;;;;8.65;45.94;101443.18;105889;1256;62500;-50
2023/05/08 00:18:44;;;;;;;5.70;2.50;;;;;;;8.59;46.11;101458.29;105854;1253;74347;-50
2023/05/08 00:21:11;;;;;;;5.90;2.20;;;;;;;8.54;46.45;101483.55;105921;1251;67173;-48
2023/05/08 00:23:38;;;;;;;3.80;2.00;;;;;;;8.48;46.76;101505.67;105842;1256;75270;-48
2023/05/08 00:26:05;;;;;;;10.50;2.70;;;;;;;8.42;46.86;101522.13;105880;1254;61136;-48
2023/05/08 00:28:32;;;;;;;3.70;1.70;;;;;;;8.37;46.93;101529.67;105856;1253;63058;-48
2023/05/08 00:31:00;;;;;;;10.90;2.40;;;;;;;8.34;47.38;101547.71;105837;1256;76342;-48
2023/05/08 00:33:28;;;;;;;5.20;2.20;;;;;;;8.31;47.46;101558.16;105891;1254;66580;-48
2023/05/08 00:36:02;;;;;;;2.30;1.70;;;;;;;8.28;47.81;101574.14;105820;1257;73601;-50
2023/05/08 00:38:30;;;;;;;8.20;2.30;;;;;;;8.25;47.80;101586.33;105614;1255;62486;-50
2023/05/08 00:40:57;;;;;;;6.20;2.50;;;;;;;8.21;47.82;101595.58;105780;1257;61193;-50
2023/05/08 00:43:27;;;;;;;2.30;2.10;;;;;;;8.19;47.80;101593.48;105907;1253;75520;-50
2023/05/08 00:45:55;;;;;;;2.40;2.20;;;;;;;8.18;47.98;101609.64;105843;1257;66545;-49
2023/05/08 00:48:22;;;;;;;4.30;2.50;;;;;;;8.15;48.11;101618.73;105746;1259;74399;-48
2023/05/08 00:50:51;;;;;;;5.80;2.10;;;;;;;8.12;48.19;101631.77;105688;1254;61236;-49
2023/05/08 00:53:21;;;;;;;3.10;2.10;;;;;;;8.08;48.39;101642.21;105917;1254;62461;-48
2023/05/08 00:55:50;;;;;;;5.60;2.00;;;;;;;8.04;48.86;101657.98;105861;1257;75572;-48
2023/05/08 00:58:19;;;;;;;5.50;2.30;;;;;;;7.98;49.22;101679.24;105720;1254;66510;-48
2023/05/08 01:00:46;;;;;;;6.50;2.20;;;;;;;7.92;49.12;101688.44;105882;1254;74134;-48
2023/05/08 01:03:13;;;;;;;5.30;2.20;;;;;;;7.86;49.39;101703.33;105720;1257;61016;-48
2023/05/08 01:05:40;;;;;;;14.50;2.60;;;;;;;7.83;49.44;101706.55;105698;1259;62222;-49
2023/05/08 01:08:07;;;;;;;6.50;2.20;;;;;;;7.79;49.66;101714.40;105875;1256;76449;-48
2023/05/08 01:11:00;;;;;;;5.00;2.30;;;;;;;7.73;49.81;101731.19;105914;1257;67133;-49
2023/05/08 01:13:49;;;;;;;3.70;2.00;;;;;;;7.68;50.42;101756.18;105672;1252;75027;-49
2023/05/08 01:16:21;;;;;;;3.40;2.10;;;;;;;7.60;50.72;101781.16;105836;1255;62486;-50
2023/05/08 01:19:14;;;;;;;3.10;2.00;;;;;;;7.56;50.80;101785.38;105899;1256;61760;-50
2023/05/08 01:21:50;;;;;;;2.50;2.20;;;;;;;7.53;50.81;101802.17;105882;1256;75554;-50
2023/05/08 01:24:23;;;;;;;2.80;2.30;;;;;;;7.48;51.15;101817.73;105941;1256;67025;-49
2023/05/08 01:27:15;;;;;;;12.70;2.70;;;;;;;7.42;51.57;101839.10;105870;1254;75032;-49
2023/05/08 01:30:18;;;;;;;3.00;2.30;;;;;;;7.35;51.95;101858.05;105697;1256;61442;-49
2023/05/08 01:32:48;;;;;;;5.00;2.60;;;;;;;7.29;52.34;101883.88;105794;1256;60932;-49
2023/05/08 01:35:25;;;;;;;5.10;2.60;;;;;;;7.23;52.53;101897.01;105946;1256;75565;-50
2023/05/08 01:38:11;;;;;;;2.30;1.90;;;;;;;7.17;52.81;101918.01;105883;1255;67711;-49
2023/05/08 01:40:50;;;;;;;;;;;;;;;7.10;53.31;101942.60;105960;1254;74989;-50
2023/05/08 01:43:39;;;;;;;4.20;2.10;;;;;;;7.02;53.90;101968.71;105886;1256;61804;-50
2023/05/08 01:46:09;;;;;;;2.40;2.20;;;;;;;6.94;54.09;101988.79;105734;1257;62493;-50
2023/05/08 01:48:40;;;;;;;2.50;2.00;;;;;;;6.88;54.71;102009.77;105708;1257;76179;-50
2023/05/08 01:51:11;;;;;;;5.20;2.10;;;;;;;6.80;55.45;102034.32;105920;1253;67490;-50
2023/05/08 01:53:41;;;;;;;3.40;2.40;;;;;;;6.73;56.02;102052.86;105926;1256;74085;-48
2023/05/08 01:56:11;;;;;;;3.60;1.80;;;;;;;6.67;56.28;102067.98;105934;1254;62249;-49
2023/05/08 01:58:38;;;;;;;3.40;2.50;;;;;;;6.60;57.09;102087.56;105760;1257;62464;-48
2023/05/08 02:01:05;;;;;;;6.00;2.10;;;;;;;6.54;57.54;102106.11;105681;1262;75747;-49
2023/05/08 02:03:32;;;;;;;6.20;2.30;;;;;;;6.50;57.94;102122.14;105966;1257;66215;-49
2023/05/08 02:05:59;;;;;;;10.10;2.30;;;;;;;6.45;58.60;102139.85;105675;1259;74111;-49
2023/05/08 02:08:28;;;;;;;4.40;2.00;;;;;;;6.42;59.04;102153.83;105441;1253;299903;-49
2023/05/08 02:10:55;;;;;;;2.60;2.20;;;;;;;6.37;59.50;102164.67;105891;1254;61552;-48
2023/05/08 02:14:01;;;;;;;5.80;2.30;;;;;;;6.33;60.35;102190.14;102910;1290;600426;-49
2023/05/08 02:16:28;;;;;;;7.10;2.60;;;;;;;6.25;61.84;102214.95;104943;1271;60993;-50
2023/05/08 02:18:57;;;;;;;3.20;2.90;;;;;;;6.17;63.61;102233.77;104961;1263;62571;-50
2023/05/08 02:21:25;;;;;;;4.30;2.20;;;;;;;6.11;64.78;102250.90;104930;1270;73536;-50
2023/05/08 02:23:52;;;;;;;6.10;3.00;;;;;;;6.05;66.75;102272.33;104818;1263;66978;-49
2023/05/08 02:26:20;;;;;;;7.50;2.20;;;;;;;5.98;68.31;102288.23;104968;1267;74189;-50
2023/05/08 02:28:48;;;;;;;5.50;2.80;;;;;;;5.93;69.33;102302.80;104649;1261;237176;-49
2023/05/08 02:31:15;;;;;;;7.00;2.80;;;;;;;5.88;72.58;102320.98;105710;1254;62844;-49
2023/05/08 02:33:42;;;;;;;3.10;2.20;;;;;;;5.80;74.87;102332.73;105697;1259;74328;-49
2023/05/08 02:36:11;;;;;;;10.60;2.50;;;;;;;5.73;78.30;102345.88;105644;1260;66827;-50
2023/05/08 02:38:38;;;;;;;4.30;2.50;;;;;;;5.67;82.50;102365.19;105660;1257;73442;-49
2023/05/08 02:41:05;;;;;;;7.20;2.40;;;;;;;5.61;86.82;102386.95;105662;1261;61372;-50
2023/05/08 02:43:33;;;;;;;8.00;2.90;;;;;;;5.57;90.55;102401.55;105544;1262;61498;-49
2023/05/08 02:46:19;;;;;;;4.40;2.10;;;;;;;5.55;94.40;102422.36;105630;1261;74840;-49
2023/05/08 02:48:55;;;;;;;12.80;2.90;;;;;;;5.54;97.97;102436.20;105663;1261;66832;-50
2023/05/08 02:51:30;;;;;;;9.40;2.50;;;;;;;5.56;99.86;102452.02;105697;1259;74135;-49
2023/05/08 02:54:13;;;;;;;3.50;2.50;;;;;;;5.58;100.00;102456.71;105728;1259;61254;-48
2023/05/08 02:56:49;;;;;;;3.60;2.60;;;;;;;5.59;100.00;102470.64;105643;1260;61857;-50
2023/05/08 02:59:21;;;;;;;5.80;2.30;;;;;;;5.61;100.00;102468.14;105681;1260;75331;-50
2023/05/08 03:01:58;;;;;;;3.50;2.50;;;;;;;5.64;100.00;102460.88;105723;1261;67012;-49
2023/05/08 03:04:31;;;;;;;4.70;2.50;;;;;;;5.67;100.00;102459.25;105711;1259;75610;-49
2023/05/08 03:06:58;;;;;;;12.60;2.90;;;;;;;5.69;100.00;102458.80;105625;1262;61762;-48
2023/05/08 03:09:27;;;;;;;3.00;2.40;;;;;;;5.71;100.00;102455.65;105661;1254;63140;-48
2023/05/08 03:12:02;;;;;;;4.30;2.60;;;;;;;5.75;100.00;102446.68;105704;1256;74824;-49
2023/05/08 03:14:30;;;;;;;;;;;;;;;5.79;100.00;102436.86;105727;1255;67456;-49
2023/05/08 03:16:56;;;;;;;5.00;2.20;;;;;;;5.83;100.00;102424.50;105651;1257;73387;-49
2023/05/08 03:19:30;;;;;;;2.90;2.50;;;;;;;5.88;100.00;102399.45;105451;1256;62178;-48
2023/05/08 03:21:57;;;;;;;6.00;2.60;;;;;;;5.95;100.00;102380.30;105599;1256;62199;-48
2023/05/08 03:24:24;;;;;;;5.60;2.10;;;;;;;6.03;99.78;102358.64;105618;1261;75648;-49
2023/05/08 03:26:52;;;;;;;7.90;2.20;;;;;;;6.12;97.99;102331.31;105323;1265;66869;-48
2023/05/08 03:29:19;;;;;;;3.90;2.60;;;;;;;6.17;94.27;102310.73;105645;1257;74182;-49
2023/05/08 03:31:46;;;;;;;8.60;2.30;;;;;;;6.22;88.75;102279.85;105535;1254;61735;-48
2023/05/08 03:34:13;;;;;;;4.80;2.20;;;;;;;6.26;85.57;102264.69;105634;1260;61954;-49
2023/05/08 03:36:40;;;;;;;3.00;2.60;;;;;;;6.28;86.45;102256.67;105606;1254;74548;-48
2023/05/08 03:39:07;;;;;;;5.20;2.10;;;;;;;6.27;85.31;102239.86;105598;1254;66191;-48
2023/05/08 03:41:34;;;;;;;2.90;2.20;;;;;;;6.29;85.00;102232.72;105622;1254;75421;-48
2023/05/08 03:44:02;;;;;;;4.40;2.50;;;;;;;6.40;86.53;102222.21;105301;1257;61881;-48
2023/05/08 03:46:32;;;;;;;5.30;2.30;;;;;;;6.62;82.24;102202.54;105580;1260;62475;-48
2023/05/08 03:49:01;;;;;;;8.10;2.10;;;;;;;6.90;74.21;102166.87;105279;1264;74492;-48
2023/05/08 03:51:28;;;;;;;6.40;2.00;;;;;;;7.20;69.89;102137.49;105652;1254;66248;-49
2023/05/08 03:53:56;;;;;;;3.60;2.20;;;;;;;7.48;67.75;102119.03;105626;1256;75432;-48
2023/05/08 03:56:23;;;;;;;5.20;1.80;;;;;;;7.75;65.30;102087.80;105569;1254;62982;-48
2023/05/08 03:59:03;;;;;;;7.50;1.90;;;;;;;8.03;61.52;102020.73;105632;1260;63435;-48
2023/05/08 04:01:38;;;;;;;3.20;1.90;;;;;;;8.25;60.11;102002.54;105512;1262;75506;-49
2023/05/08 04:04:19;;;;;;;4.40;2.30;;;;;;;8.47;58.10;101951.44;105658;1254;65637;-48
2023/05/08 04:07:09;;;;;;;4.10;2.40;;;;;;;8.68;55.52;101870.50;105618;1260;75573;-49
2023/05/08 04:10:01;;;;;;;5.00;2.10;;;;;;;8.82;55.21;101868.26;105557;1255;63048;-49
2023/05/08 04:12:42;;;;;;;8.00;2.00;;;;;;;8.97;54.30;101837.60;105671;1260;60480;-49
2023/05/08 04:15:21;;;;;;;2.20;1.60;;;;;;;9.11;53.71;101818.97;105588;1256;75356;-49
2023/05/08 04:17:53;;;;;;;2.20;1.90;;;;;;;9.25;52.86;101790.68;105551;1257;67459;-49
2023/05/08 04:20:21;;;;;;;5.30;2.30;;;;;;;9.35;51.51;101730.63;105528;1257;74114;-50
2023/05/08 04:22:49;;;;;;;7.40;2.00;;;;;;;9.40;51.44;101728.42;105567;1261;61800;-51
2023/05/08 04:25:16;;;;;;;4.70;2.10;;;;;;;9.49;51.52;101741.06;105186;1262;63133;-50
2023/05/08 04:27:44;;;;;;;3.70;2.00;;;;;;;9.61;50.96;101709.25;105339;1260;75641;-54
2023/05/08 04:30:11;;;;;;;5.20;1.80;;;;;;;9.71;50.50;101692.75;105549;1260;66994;-50
2023/05/08 04:32:38;;;;;;;3.50;2.10;;;;;;;9.78;50.16;101671.06;105603;1257;75142;-52
2023/05/08 04:35:09;;;;;;;8.70;1.90;;;;;;;9.90;49.91;101656.98;105554;1262;63004;-49
2023/05/08 04:37:36;;;;;;;8.30;2.20;;;;;;;10.02;48.92;101595.96;105575;1256;62088;-50
2023/05/08 04:40:04;;;;;;;1.70;1.60;;;;;;;10.03;47.94;101532.50;105571;1261;75286;-49
2023/05/08 04:42:35;;;;;;;7.30;2.00;;;;;;;10.00;48.41;101573.38;105631;1261;67128;-50
2023/05/08 04:45:03;;;;;;;3.20;2.00;;;;;;;10.12;47.88;101546.48;105624;1260;75454;-49
2023/05/08 04:47:31;;;;;;;5.80;2.20;;;;;;;10.19;47.43;101517.67;105592;1256;63748;-49
2023/05/08 04:49:59;;;;;;;2.70;1.80;;;;;;;10.27;47.71;101537.36;105589;1260;63076;-49
2023/05/08 04:52:31;;;;;;;4.80;2.00;;;;;;;10.44;47.17;101507.67;105592;1260;73749;-49
2023/05/08 04:54:58;;;;;;;10.10;2.00;;;;;;;10.52;45.72;101408.63;105586;1256;67194;-49
2023/05/08 04:57:25;;;;;;;5.20;1.60;;;;;;;10.53;46.00;101420.88;105518;1259;73691;-50
2023/05/08 04:59:53;;;;;;;5.20;1.70;;;;;;;10.62;45.31;101378.02;105569;1258;61899;-49
2023/05/08 05:02:20;;;;;;;4.80;2.30;;;;;;;10.68;44.87;101339.86;105529;1262;61708;-50
2023/05/08 05:04:48;;;;;;;8.10;2.10;;;;;;;10.69;44.44;101319.13;105581;1260;73400;-50
2023/05/08 05:07:15;;;;;;;4.40;2.00;;;;;;;10.59;45.03;101361.48;105598;1259;66888;-50
2023/05/08 05:09:42;;;;;;;7.40;3.50;;;;;;;10.63;45.03;101361.29;105544;1260;75465;-48
2023/05/08 05:12:09;;;;;;;3.20;2.30;;;;;;;10.69;44.90;101361.27;105511;1260;63116;-51
2023/05/08 05:14:37;;;;;;;6.00;3.30;;;;;;;10.74;44.56;101341.04;105475;1262;61754;-49
2023/05/08 05:17:04;;;;;;;6.90;2.40;;;;;;;10.78;44.43;101330.48;105246;1261;75273;-48
2023/05/08 05:19:32;;;;;;;4.90;2.40;;;;;;;10.80;44.21;101318.23;105523;1256;67109;-48
2023/05/08 05:21:59;;;;;;;3.20;1.90;;;;;;;10.81;43.77;101288.86;105613;1257;75258;-50
2023/05/08 05:24:27;;;;;;;6.60;2.80;;;;;;;10.76;44.28;101319.63;105580;1256;62894;-50
2023/05/08 05:26:56;;;;;;;2.30;1.90;;;;;;;10.85;45.09;101384.67;105636;1258;60951;-50
2023/05/08 05:29:23;;;;;;;8.90;2.30;;;;;;;11.03;44.56;101353.83;105585;1260;75774;-50
2023/05/08 05:31:50;;;;;;;11.50;2.10;;;;;;;11.13;44.05;101300.41;105521;1257;66160;-50
2023/05/08 05:34:18;;;;;;;5.30;1.90;;;;;;;11.18;44.36;101329.20;105651;1256;75398;-50
2023/05/08 05:36:45;;;;;;;6.80;2.00;;;;;;;11.24;43.89;101291.67;105544;1256;60653;-49
2023/05/08 05:39:12;;;;;;;4.80;1.80;;;;;;;11.30;44.25;101319.63;105542;1256;62491;-49
2023/05/08 05:41:43;;;;;;;3.40;1.90;;;;;;;11.40;44.57;101351.16;105584;1259;74842;-50
2023/05/08 05:44:10;;;;;;;6.10;2.10;;;;;;;11.56;43.41;101274.29;105599;1260;66427;-50
2023/05/08 05:46:37;;;;;;;4.50;1.60;;;;;;;11.55;42.82;101226.24;105604;1259;75316;-50
2023/05/08 05:49:05;;;;;;;5.50;2.10;;;;;;;11.50;42.98;101228.73;105498;1257;62324;-50
2023/05/08 05:51:32;;;;;;;3.30;1.70;;;;;;;11.50;43.99;101298.72;105633;1256;63327;-50
2023/05/08 05:53:59;;;;;;;2.30;1.80;;;;;;;11.63;43.38;101273.19;105603;1256;74854;-50
2023/05/08 05:56:27;;;;;;;4.70;2.00;;;;;;;11.63;42.56;101206.11;105468;1259;67111;-50
2023/05/08 05:58:54;;;;;;;9.10;1.70;;;;;;;11.51;42.55;101195.16;105568;1260;75005;-49
2023/05/08 06:01:23;;;;;;;5.10;1.50;;;;;;;11.47;43.06;101242.05;105605;1256;60753;-49
2023/05/08 06:03:50;;;;;;;5.40;1.60;;;;;;;11.57;43.44;101272.39;105564;1260;61786;-50
2023/05/08 06:06:18;;;;;;;2.70;1.70;;;;;;;11.69;42.53;101203.80;105567;1256;73150;-49
2023/05/08 06:08:47;;;;;;;4.50;1.60;;;;;;;11.75;42.75;101210.64;105607;1258;67526;-49
2023/05/08 06:11:14;;;;;;;3.60;1.50;;;;;;;11.87;43.12;101238.89;105647;1260;75268;-49
2023/05/08 06:13:42;;;;;;;2.50;1.80;;;;;;;11.96;42.81;101216.80;105558;1256;63430;-49
2023/05/08 06:16:10;;;;;;;7.80;1.60;;;;;;;12.02;42.32;101183.03;105643;1256;62935;-49
2023/05/08 06:18:37;;;;;;;2.90;1.70;;;;;;;11.99;41.90;101148.44;105682;1257;73841;-49
2023/05/08 06:21:04;;;;;;;6.10;1.70;;;;;;;12.01;42.89;101212.79;105707;1253;66200;-49
2023/05/08 06:23:32;;;;;;;9.20;1.60;;;;;;;12.14;42.84;101227.16;105863;1253;74501;-49
2023/05/08 06:25:59;;;;;;;4.20;1.60;;;;;;;12.23;42.29;101182.59;105890;1253;61035;-50
2023/05/08 06:28:26;;;;;;;6.00;1.80;;;;;;;12.28;42.00;101164.52;105860;1252;61471;-49
2023/05/08 06:30:54;;;;;;;4.40;1.70;;;;;;;12.31;41.54;101127.27;105859;1257;75724;-49
2023/05/08 06:33:21;;;;;;;7.40;2.00;;;;;;;12.37;41.67;101132.55;105869;1252;66176;-50
2023/05/08 06:35:51;;;;;;;8.90;2.20;;;;;;;12.38;41.53;101126.30;105853;1253;74383;-50
2023/05/08 06:38:18;;;;;;;2.10;1.80;;;;;;;12.34;40.84;101071.15;105833;1254;61858;-50
2023/05/08 06:40:45;;;;;;;14.20;2.10;;;;;;;12.25;41.66;101134.12;105824;1252;62736;-50
2023/05/08 06:43:12;;;;;;;8.30;2.40;;;;;;;12.26;41.14;101111.60;105850;1257;74703;-50
2023/05/08 06:45:39;;;;;;;4.00;2.10;;;;;;;12.30;40.45;101045.08;105842;1253;66314;-49
2023/05/08 06:48:06;;;;;;;5.90;2.00;;;;;;;12.29;40.63;101052.71;105908;1257;75190;-50
2023/05/08 06:50:36;;;;;;;6.20;2.10;;;;;;;12.37;40.89;101077.16;105864;1253;61589;-49
2023/05/08 06:53:04;;;;;;;8.90;2.20;;;;;;;12.50;41.08;101096.34;105882;1251;62727;-50
2023/05/08 06:55:31;;;;;;;6.20;2.20;;;;;;;12.71;41.29;101115.06;105910;1257;74906;-50
2023/05/08 06:57:58;;;;;;;5.40;2.30;;;;;;;12.86;39.49;100968.79;105854;1253;66817;-50
2023/05/08 07:00:25;;;;;;;10.90;2.20;;;;;;;12.75;39.73;100972.96;105861;1253;75306;-50
2023/05/08 07:02:53;;;;;;;8.10;2.30;;;;;;;12.77;40.29;101027.84;105848;1256;62818;-49
2023/05/08 07:05:20;;;;;;;3.30;1.70;;;;;;;12.86;39.55;100979.17;105901;1256;61791;-50
2023/05/08 07:07:47;;;;;;;4.50;1.80;;;;;;;12.91;39.47;100951.17;105947;1253;75228;-49
2023/05/08 07:10:15;;;;;;;4.70;1.40;;;;;;;13.04;39.77;100982.98;105855;1252;67390;-50
2023/05/08 07:12:43;;;;;;;2.80;1.60;;;;;;;13.24;39.68;100979.44;105845;1256;75138;-50
2023/05/08 07:15:11;;;;;;;7.50;1.40;;;;;;;13.41;38.79;100897.09;105870;1253;61926;-50
2023/05/08 07:17:51;;;;;;;83.00;4.10;;;;;;;13.58;39.08;100910.79;105861;1252;61729;-48
2023/05/08 07:20:18;;;;;;;8.60;1.50;;;;;;;13.74;39.03;100910.58;105874;1252;76386;-49
2023/05/08 07:22:45;;;;;;;11.70;1.40;;;;;;;13.92;38.28;100837.77;105931;1253;66183;-49
2023/05/08 07:25:13;;;;;;;2.90;1.60;;;;;;;14.02;38.60;100854.35;105860;1253;74280;-50
2023/05/08 07:27:41;;;;;;;1.70;1.30;;;;;;;14.12;37.81;100791.27;105845;1253;61875;-50
2023/05/08 07:30:09;;;;;;;3.70;1.50;;;;;;;14.13;37.63;100771.11;105865;1253;60770;-50
2023/05/08 07:32:38;;;;;;;5.20;1.60;;;;;;;14.16;37.15;100743.09;105867;1251;75188;-50
2023/05/08 07:35:08;;;;;;;5.60;1.40;;;;;;;14.22;36.87;100700.73;105923;1251;66574;-50
2023/05/08 07:37:39;;;;;;;7.00;1.80;;;;;;;14.33;37.26;100730.44;105915;1253;74198;-49
2023/05/08 07:40:06;;;;;;;6.80;1.40;;;;;;;14.45;37.03;100712.73;105894;1257;61944;-49
2023/05/08 07:42:40;;;;;;;58.00;3.10;;;;;;;14.60;36.94;100695.25;105878;1253;62963;-49
2023/05/08 07:45:09;;;;;;;19.00;1.80;;;;;;;14.73;36.90;100695.23;105933;1257;76236;-49
2023/05/08 07:47:38;;;;;;;9.30;1.70;;;;;;;14.82;36.75;100686.23;105882;1253;66136;-50
2023/05/08 07:50:06;;;;;;;6.50;1.40;;;;;;;14.86;35.89;100587.09;105841;1257;74113;-49
2023/05/08 07:52:33;;;;;;;6.10;1.60;;;;;;;14.80;35.86;100574.62;105962;1253;62684;-49
2023/05/08 07:55:00;;;;;;;10.10;1.80;;;;;;;14.76;35.83;100578.74;105869;1257;62870;-50
2023/05/08 07:57:27;;;;;;;9.70;1.50;;;;;;;14.70;35.67;100567.83;105810;1257;76238;-50
2023/05/08 08:00:00;;;;;;;7.80;1.80;;;;;;;14.67;35.87;100575.38;105846;1251;66811;-50
2023/05/08 08:02:28;;;;;;;6.00;1.70;;;;;;;14.74;36.12;100597.73;105878;1253;73242;-49
2023/05/08 08:04:55;;;;;;;4.00;1.50;;;;;;;14.85;35.57;100548.04;105845;1257;61543;-49
2023/05/08 08:07:22;;;;;;;24.30;2.00;;;;;;;14.95;36.10;100590.60;105847;1253;62830;-49
2023/05/08 08:09:49;;;;;;;7.00;1.50;;;;;;;15.06;35.37;100525.09;105950;1257;76202;-50
2023/05/08 08:12:16;;;;;;;8.50;1.40;;;;;;;15.12;35.24;100503.81;105887;1257;66069;-49
2023/05/08 08:14:44;;;;;;;40.50;2.70;;;;;;;15.13;35.77;100554.17;105765;1253;75211;-53
2023/05/08 08:17:11;;;;;;;11.10;1.70;;;;;;;15.37;35.56;100552.80;105314;1253;63099;-50
2023/05/08 08:19:38;;;;;;;5.30;2.10;;;;;;;15.49;35.06;100496.19;105732;1257;61840;-52
2023/05/08 08:22:05;;;;;;;10.10;4.20;;;;;;;15.40;34.32;100437.40;105836;1257;76490;-54
2023/05/08 08:24:32;;;;;;;9.90;5.60;;;;;;;15.43;35.28;100500.58;105830;1252;66786;-51
2023/05/08 08:26:59;;;;;;;7.40;2.70;;;;;;;15.69;34.30;100437.31;105844;1253;73187;-49
2023/05/08 08:29:26;;;;;;;11.20;1.60;;;;;;;15.95;34.40;100408.27;105877;1254;61490;-49
2023/05/08 08:31:53;;;;;;;4.50;2.20;;;;;;;16.04;33.63;100341.09;105875;1251;60482;-50
2023/05/08 08:34:20;;;;;;;4.90;1.30;;;;;;;15.90;33.95;100347.95;105836;1257;76776;-50
2023/05/08 08:36:48;;;;;;;5.80;1.90;;;;;;;15.93;34.98;100446.46;105869;1251;66322;-49
2023/05/08 08:39:15;;;;;;;7.30;1.80;;;;;;;16.10;34.03;100394.12;105868;1253;75191;-49
2023/05/08 08:41:42;;;;;;;14.70;1.60;;;;;;;16.08;34.00;100360.25;105847;1256;61879;-49
2023/05/08 08:44:09;;;;;;;9.50;2.10;;;;;;;16.13;33.56;100335.86;105839;1253;60638;-49
2023/05/08 08:46:38;;;;;;;18.20;2.50;;;;;;;16.10;34.00;100353.74;105836;1257;75564;-49
2023/05/08 08:49:07;;;;;;;7.10;2.00;;;;;;;16.06;34.11;100365.20;105762;1257;65261;-50
2023/05/08 08:51:43;;;;;;;6.60;2.30;;;;;;;16.06;34.54;100402.10;105735;1257;74513;-51
2023/05/08 08:54:13;;;;;;;5.50;1.70;;;;;;;16.21;34.48;100393.82;105873;1257;61824;-50
2023/05/08 08:56:43;;;;;;;5.50;1.80;;;;;;;16.33;34.41;100384.23;105896;1257;61442;-50
2023/05/08 08:59:11;;;;;;;10.50;1.60;;;;;;;16.23;33.41;100294.31;105845;1257;75594;-51
2023/05/08 09:01:38;;;;;;;9.50;2.10;;;;;;;16.03;34.36;100378.02;105900;1254;66221;-50
2023/05/08 09:04:06;;;;;;;5.90;1.80;;;;;;;15.93;34.06;100368.02;105880;1251;75226;-50
2023/05/08 09:06:37;;;;;;;11.60;2.30;;;;;;;15.89;33.43;100333.02;105838;1253;61854;-51
2023/05/08 09:09:04;;;;;;;11.20;2.00;;;;;;;15.88;33.60;100320.19;105917;1253;62430;-50
2023/05/08 09:11:31;;;;;;;6.30;2.10;;;;;;;15.83;33.39;100309.07;105842;1253;75386;-51
2023/05/08 09:13:58;;;;;;;6.40;1.60;;;;;;;15.97;34.65;100403.33;105892;1253;67439;-50
2023/05/08 09:16:26;;;;;;;7.00;2.00;;;;;;;16.29;33.25;100305.91;105923;1253;73889;-51
2023/05/08 09:18:54;;;;;;;4.30;1.50;;;;;;;16.47;33.20;100273.58;105745;1256;61786;-51
2023/05/08 09:21:23;;;;;;;5.20;1.70;;;;;;;16.69;33.37;100284.08;105855;1258;61764;-50
2023/05/08 09:23:57;;;;;;;7.30;1.70;;;;;;;17.02;33.34;100244.55;105814;1257;75613;-50
2023/05/08 09:26:35;;;;;;;4.10;1.60;;;;;;;17.20;32.22;100168.71;105915;1252;65922;-50
2023/05/08 09:29:09;;;;;;;4.50;1.40;;;;;;;17.05;32.12;100130.77;105851;1253;74112;-51
2023/05/08 09:31:39;;;;;;;8.50;1.40;;;;;;;17.01;32.28;100134.25;105851;1253;61975;-49
2023/05/08 09:34:11;;;;;;;4.00;1.20;;;;;;;17.09;31.08;100044.96;105874;1258;61899;-50
2023/05/08 09:36:41;;;;;;;8.50;1.90;;;;;;;17.08;31.95;100086.70;105978;1256;76216;-50
2023/05/08 09:39:12;;;;;;;5.40;2.60;;;;;;;16.95;31.81;100074.61;105825;1259;66063;-49
2023/05/08 09:41:39;;;;;;;2.70;1.50;;;;;;;16.76;31.91;100102.17;105899;1254;74858;-48
2023/05/08 09:44:07;;;;;;;2.00;1.40;;;;;;;16.64;32.82;100174.38;105678;1253;62867;-51
2023/05/08 09:46:34;;;;;;;6.80;2.00;;;;;;;16.59;32.64;100173.23;105884;1253;61161;-51
2023/05/08 09:49:02;;;;;;;3.70;1.50;;;;;;;16.68;32.56;100157.63;105842;1258;74631;-51
2023/05/08 09:51:30;;;;;;;7.90;1.80;;;;;;;16.78;32.24;100135.39;105904;1257;66797;-50
2023/05/08 09:53:58;;;;;;;3.10;1.20;;;;;;;16.86;32.45;100150.14;105914;1256;74182;-51
2023/05/08 09:56:38;;;;;;;8.30;1.90;;;;;;;17.02;32.09;100116.95;105910;1252;62728;-50
2023/05/08 09:59:21;;;;;;;2.70;1.50;;;;;;;17.24;33.02;100188.54;105880;1257;61464;-50
2023/05/08 10:01:48;;;;;;;17.50;1.90;;;;;;;17.61;32.08;100135.23;105937;1253;76394;-50
2023/05/08 10:04:16;;;;;;;5.50;1.90;;;;;;;17.65;31.35;100036.43;105863;1253;67356;-50
2023/05/08 10:06:43;;;;;;;2.30;1.50;;;;;;;17.62;31.98;100084.40;105897;1257;74468;-50
2023/05/08 10:09:11;;;;;;;3.10;1.40;;;;;;;17.69;31.37;100041.29;105842;1253;62861;-50
2023/05/08 10:11:39;;;;;;;4.70;1.20;;;;;;;17.48;31.91;100079.05;105870;1257;61919;-50
2023/05/08 10:14:07;;;;;;;4.60;1.60;;;;;;;17.10;31.78;100077.35;105926;1256;76352;-50
2023/05/08 10:16:40;;;;;;;4.50;1.50;;;;;;;16.64;32.18;100106.96;105902;1250;67434;-50
2023/05/08 10:19:14;;;;;;;5.90;1.50;;;;;;;16.37;32.30;100122.36;105914;1257;74185;-51
2023/05/08 10:21:48;;;;;;;3.60;1.50;;;;;;;16.42;33.37;100225.54;105868;1250;62813;-51
2023/05/08 10:24:48;;;;;;;5.90;1.50;;;;;;;16.64;32.34;100139.69;105917;1250;63083;-50
2023/05/08 10:27:23;;;;;;;4.70;1.80;;;;;;;16.75;33.90;100270.35;105574;1258;76451;-51
2023/05/08 10:29:54;;;;;;;2.50;1.50;;;;;;;17.01;32.53;100171.92;105851;1251;66740;-51
2023/05/08 10:32:22;;;;;;;4.90;1.40;;;;;;;16.89;32.33;100117.92;105836;1251;74270;-50
2023/05/08 10:34:55;;;;;;;9.00;1.40;;;;;;;16.82;32.70;100155.21;105849;1250;62516;-52
2023/05/08 10:37:22;;;;;;;6.50;1.70;;;;;;;16.98;32.78;100172.59;105912;1256;61761;-50
2023/05/08 10:39:51;;;;;;;14.40;1.60;;;;;;;17.18;32.93;100183.27;105900;1251;76197;-50
2023/05/08 10:42:18;;;;;;;5.20;1.50;;;;;;;17.41;33.70;100252.77;105942;1257;67153;-51
2023/05/08 10:44:45;;;;;;;5.50;1.90;;;;;;;17.57;32.15;100130.75;105859;1253;73721;-51
2023/05/08 10:47:24;;;;;;;3.40;1.90;;;;;;;17.45;32.24;100123.98;105876;1257;62735;-50
2023/05/08 10:50:10;;;;;;;6.60;1.70;;;;;;;17.31;32.49;100120.89;105861;1258;61532;-49
2023/05/08 10:52:40;;;;;;;4.30;1.50;;;;;;;17.26;33.27;100216.73;105852;1251;75186;-51
2023/05/08 10:55:22;;;;;;;5.20;2.00;;;;;;;17.52;32.77;100187.83;105765;1250;65749;-50
2023/05/08 10:58:16;;;;;;;18.70;1.80;;;;;;;17.89;31.85;100100.38;105900;1253;73813;-51
2023/05/08 11:00:52;;;;;;;6.50;1.50;;;;;;;17.95;31.71;100056.09;105834;1251;62147;-51
2023/05/08 11:03:20;;;;;;;2.80;1.60;;;;;;;17.98;31.99;100098.67;105857;1257;62768;-51
2023/05/08 11:05:59;;;;;;;18.90;1.80;;;;;;;18.01;31.15;100008.44;105841;1251;74957;-51
2023/05/08 11:08:27;;;;;;;8.80;1.20;;;;;;;17.93;31.43;100025.66;105925;1251;66418;-51
2023/05/08 11:10:57;;;;;;;2.60;1.50;;;;;;;17.85;32.07;100102.38;105888;1258;74106;-50
2023/05/08 11:13:29;;;;;;;6.00;1.40;;;;;;;17.91;30.98;100004.67;105843;1253;63287;-53
2023/05/08 11:15:56;;;;;;;3.50;1.20;;;;;;;17.93;30.91;99981.33;105694;1259;61906;-52
2023/05/08 11:18:24;;;;;;;18.40;2.90;;;;;;;17.98;30.83;99975.80;105676;1253;74943;-50
2023/05/08 11:20:59;;;;;;;12.00;2.00;;;;;;;18.11;30.07;99909.29;105672;1254;66137;-51
2023/05/08 11:23:27;;;;;;;5.30;1.30;;;;;;;18.17;30.41;99925.02;105920;1258;75681;-52
2023/05/08 11:26:05;;;;;;;4.20;1.30;;;;;;;18.10;30.05;99878.08;105865;1258;62834;-52
2023/05/08 11:28:37;;;;;;;9.80;2.00;;;;;;;18.09;30.56;99933.98;105898;1253;62870;-51
2023/05/08 11:31:05;;;;;;;2.40;1.70;;;;;;;18.17;30.62;99938.06;105864;1257;74445;-50
2023/05/08 11:33:36;;;;;;;3.20;1.40;;;;;;;18.18;30.84;99941.52;105931;1251;66944;-50